Time;durP1;ratioP1;P1;durP2;ratioP2;P2;SDS_P1;SDS_P2;PMS_P1;PMS_P2;Temp;Humidity;BMP_temperature;BMP_pressure;BME280_temperature;BME280_humidity;BME280_pressure;Samples;Min_cycle;Max_cycle;Signal;HPM_P1;HPM_P2
2022/12/18 00:01:21;;;;;;;;;;;3.90;88.70;;;-151.14;0.00;62537.16;5096699;28;19920;-82
2022/12/18 00:03:49;;;;;;;;;;;3.90;88.70;;;-151.14;0.00;62537.16;5093931;28;19926;-81
2022/12/18 00:06:17;;;;;;;;;;;3.90;88.80;;;-151.14;0.00;62537.16;5093826;28;20211;-81
2022/12/18 00:08:46;;;;;;;;;;;3.90;88.70;;;-151.14;0.00;62537.16;5110819;28;19942;-82
2022/12/18 00:11:16;;;;;;;;;;;3.90;88.80;;;-151.14;0.00;62537.16;5076766;28;19919;-82
2022/12/18 00:13:44;;;;;;;;;;;3.90;88.80;;;-151.14;0.00;62537.16;5077047;28;19920;-82
2022/12/18 00:16:13;;;;;;;;;;;3.90;88.80;;;-151.14;0.00;62537.16;5077874;28;20111;-82
2022/12/18 00:18:41;;;;;;;;;;;3.90;88.80;;;-151.14;0.00;62537.16;5077103;28;19919;-82
2022/12/18 00:21:10;;;;;;;;;;;3.90;88.80;;;-151.14;0.00;62537.16;5077164;28;19926;-81
2022/12/18 00:23:38;;;;;;;;;;;3.90;88.80;;;18.09;0.00;62537.16;5093350;28;19920;-82
2022/12/18 00:26:09;;;;;;;;;;;3.90;88.90;;;-151.14;0.00;62537.16;5093675;28;19927;-81
2022/12/18 00:28:37;;;;;;;;;;;3.90;88.90;;;-151.14;0.00;62537.16;5110449;28;19926;-82
2022/12/18 00:31:06;;;;;;;;;;;3.90;88.80;;;-151.14;0.00;62537.16;5110717;28;19934;-81
2022/12/18 00:33:34;;;;;;;;;;;3.90;88.80;;;-151.14;0.00;62537.16;5093453;28;19942;-82
2022/12/18 00:36:02;;;;;;;;;;;3.90;88.90;;;-151.14;0.00;62537.16;5076297;28;19920;-82
2022/12/18 00:38:30;;;;;;;;;;;3.90;88.90;;;-151.14;0.00;62537.16;5093592;28;19926;-81
2022/12/18 00:40:58;;;;;;;;;;;3.90;88.80;;;-151.14;0.00;62537.16;5093631;28;19920;-82
2022/12/18 00:43:26;;;;;;;;;;;3.90;89.00;;;-151.14;0.00;62537.16;5092840;28;19920;-81
2022/12/18 00:45:54;;;;;;;;;;;3.90;88.80;;;-151.14;0.00;62537.16;5076235;28;20092;-82
2022/12/18 00:48:22;;;;;;;;;;;3.90;88.90;;;-151.14;0.00;62537.16;5111461;28;19927;-82
2022/12/18 00:50:50;;;;;;;;;;;3.90;88.90;;;-151.14;0.00;62537.16;5093429;28;20235;-82
2022/12/18 00:53:18;;;;;;;;;;;3.90;88.90;;;-151.14;0.00;62537.16;5110322;28;19920;-81
2022/12/18 00:55:46;;;;;;;;;;;3.90;89.00;;;-151.14;0.00;62537.16;5093018;28;19920;-81
2022/12/18 00:58:15;;;;;;;;;;;3.90;89.00;;;-151.14;0.00;62537.16;5076538;28;19923;-81
2022/12/18 01:00:44;;;;;;;;;;;3.90;89.00;;;-151.14;0.00;62537.16;5092290;28;19928;-82
2022/12/18 01:03:13;;;;;;;;;;;3.90;89.00;;;-151.14;0.00;62537.16;5076269;28;19927;-82
2022/12/18 01:05:41;;;;;;;;;;;3.90;88.90;;;-151.14;0.00;62537.16;5092696;28;19926;-81
2022/12/18 01:08:09;;;;;;;;;;;3.90;88.90;;;-151.14;0.00;62537.16;5092984;28;19919;-82
2022/12/18 01:10:37;;;;;;;;;;;3.90;89.00;;;-151.14;0.00;62537.16;5076259;28;19926;-81
2022/12/18 01:13:05;;;;;;;;;;;3.90;89.00;;;-151.14;0.00;62537.16;5092948;28;19926;-82
2022/12/18 01:15:33;;;;;;;;;;;3.90;89.00;;;-151.14;0.00;62537.16;5092613;28;19919;-81
2022/12/18 01:18:02;;;;;;;;;;;3.90;88.90;;;-151.14;0.00;62537.16;5084349;28;19927;-82
2022/12/18 01:20:33;;;;;;;;;;;3.90;89.00;;;-151.14;0.00;62537.16;5076547;28;19942;-82
2022/12/18 01:23:01;;;;;;;;;;;3.90;88.90;;;-151.14;0.00;62537.16;5102131;28;19920;-81
2022/12/18 01:25:29;;;;;;;;;;;3.90;89.00;;;-151.14;0.00;62537.16;5092548;28;19920;-81
2022/12/18 01:27:57;;;;;;;;;;;3.90;88.90;;;-151.14;0.00;62537.16;5092771;28;19926;-81
2022/12/18 01:30:26;;;;;;;;;;;3.90;88.90;;;-151.14;0.00;62537.16;5076036;28;19920;-82
2022/12/18 01:32:54;;;;;;;;;;;3.90;88.90;;;-151.14;0.00;62537.16;5076171;28;19920;-81
2022/12/18 01:35:24;;;;;;;;;;;3.90;88.90;;;-151.14;0.00;62537.16;5092125;28;19979;-81
2022/12/18 01:37:55;;;;;;;;;;;3.90;88.90;;;-151.14;0.00;62537.16;5097110;28;19920;-82
2022/12/18 01:40:23;;;;;;;;;;;3.90;89.00;;;-151.14;0.00;62537.16;5092829;28;19926;-81
2022/12/18 01:42:53;;;;;;;;;;;3.90;88.90;;;-151.14;0.00;62537.16;5088805;28;19933;-81
2022/12/18 01:45:26;;;;;;;;;;;3.90;89.00;;;-151.14;0.00;62537.16;5075308;28;19920;-81
2022/12/18 01:47:55;;;;;;;;;;;3.90;88.90;;;-151.14;0.00;62537.16;5075986;28;20211;-81
2022/12/18 01:50:25;;;;;;;;;;;3.90;88.90;;;-151.14;0.00;62537.16;5075989;28;20092;-81
2022/12/18 01:52:56;;;;;;;;;;;3.90;89.00;;;-151.14;0.00;62537.16;5092775;28;20111;-82
2022/12/18 01:55:26;;;;;;;;;;;3.90;88.90;;;2.57;0.00;62537.16;5077537;28;19920;-82
2022/12/18 01:57:55;;;;;;;;;;;3.90;88.90;;;-151.14;0.00;62537.16;5113007;28;19926;-82
2022/12/18 02:00:23;;;;;;;;;;;3.90;88.90;;;-151.14;0.00;62537.16;5096296;28;19920;-81
2022/12/18 02:02:52;;;;;;;;;;;3.90;88.90;;;-151.14;0.00;62537.16;5095951;28;20211;-82
2022/12/18 02:05:26;;;;;;;;;;;3.90;89.00;;;-151.14;0.00;62537.16;5078596;28;20207;-81
2022/12/18 02:07:59;;;;;;;;;;;3.90;88.90;;;-151.14;0.00;62537.16;5079404;28;19926;-81
2022/12/18 02:10:31;;;;;;;;;;;3.90;89.00;;;-151.14;0.00;62537.16;5095999;28;19919;-82
2022/12/18 02:13:06;;;;;;;;;;;3.90;89.00;;;-151.14;0.00;62537.16;5129730;28;19920;-81
2022/12/18 02:15:38;;;;;;;;;;;3.90;88.90;;;-151.14;0.00;62537.16;5095494;28;20119;-81
2022/12/18 02:18:08;;;;;;;;;;;3.90;88.80;;;-151.14;0.00;62537.16;5112041;28;19920;-82
2022/12/18 02:20:43;;;;;;;;;;;3.90;88.90;;;-151.14;0.00;62537.16;5079035;28;19920;-81
2022/12/18 02:23:16;;;;;;;;;;;3.90;89.00;;;-151.14;0.00;62537.16;5078814;28;19930;-82
2022/12/18 02:26:02;;;;;;;;;;;3.90;89.00;;;-151.14;0.00;62537.16;5095273;28;19926;-81
2022/12/18 02:28:32;;;;;;;;;;;3.90;89.00;;;-151.14;0.00;62537.16;5078600;28;19920;-82
2022/12/18 02:31:05;;;;;;;;;;;3.90;89.00;;;-151.14;0.00;62537.16;5112475;28;19926;-82
2022/12/18 02:33:33;;;;;;;;;;;3.90;89.00;;;-151.14;0.00;62537.16;5095356;28;20100;-82
2022/12/18 02:36:01;;;;;;;;;;;3.90;89.00;;;-151.14;0.00;62537.16;5095375;28;19926;-82
2022/12/18 02:38:30;;;;;;;;;;;3.90;89.00;;;-151.14;0.00;62537.16;5095324;28;19928;-81
2022/12/18 02:41:04;;;;;;;;;;;3.90;89.00;;;-151.14;0.00;62537.16;5095605;28;19919;-82
2022/12/18 02:43:33;;;;;;;;;;;3.90;89.00;;;18.09;0.00;62537.16;5078082;28;19928;-81
2022/12/18 02:46:01;;;;;;;;;;;3.90;88.90;;;-151.14;0.00;62537.16;5078374;28;20211;-81
2022/12/18 02:48:33;;;;;;;;;;;3.90;89.00;;;-151.14;0.00;62537.16;5095211;28;19920;-81
2022/12/18 02:51:04;;;;;;;;;;;3.90;89.00;;;-151.14;0.00;62537.16;5095387;28;19941;-81
2022/12/18 02:53:34;;;;;;;;;;;3.90;89.90;;;-151.14;0.00;62537.16;5078192;28;20524;-81
2022/12/18 02:56:06;;;;;;;;;;;3.90;89.10;;;-151.14;0.00;62537.16;5094752;28;19920;-81
2022/12/18 02:58:37;;;;;;;;;;;3.90;89.20;;;-151.14;0.00;62537.16;5095065;28;19919;-81
2022/12/18 03:01:13;;;;;;;;;;;3.90;89.20;;;-151.14;0.00;62537.16;5078289;28;19930;-81
2022/12/18 03:03:42;;;;;;;;;;;3.90;89.10;;;-151.14;0.00;62537.16;5077911;28;19920;-81
2022/12/18 03:06:12;;;;;;;;;;;3.90;89.20;;;-151.14;0.00;62537.16;5077442;28;19924;-81
2022/12/18 03:08:42;;;;;;;;;;;3.90;89.10;;;2.57;0.00;62537.16;5077251;28;19920;-81
2022/12/18 03:11:12;;;;;;;;;;;3.90;89.20;;;-151.14;0.00;62537.16;5077697;28;20120;-81
2022/12/18 03:13:46;;;;;;;;;;;3.90;89.10;;;-151.14;0.00;62537.16;5077809;28;19920;-81
2022/12/18 03:16:18;;;;;;;;;;;3.90;89.10;;;-151.14;0.00;62537.16;5077686;28;19919;-81
2022/12/18 03:18:47;;;;;;;;;;;3.90;89.20;;;-151.14;0.00;62537.16;5094314;28;19920;-81
2022/12/18 03:21:15;;;;;;;;;;;3.90;89.10;;;2.56;0.00;62537.16;5094746;28;19926;-81
2022/12/18 03:23:45;;;;;;;;;;;3.90;89.10;;;-151.14;0.00;62537.16;5077415;28;19919;-81
2022/12/18 03:26:17;;;;;;;;;;;3.90;89.10;;;2.55;0.00;62537.16;5077738;28;19926;-81
2022/12/18 03:28:46;;;;;;;;;;;3.90;89.10;;;-151.14;0.00;62537.16;5077902;28;19926;-81
2022/12/18 03:31:15;;;;;;;;;;;3.90;89.20;;;-151.14;0.00;62537.16;5077873;28;19923;-81
2022/12/18 03:33:45;;;;;;;;;;;3.90;89.20;;;-151.14;0.00;62537.16;5077382;28;19934;-81
2022/12/18 03:36:13;;;;;;;;;;;3.80;89.00;;;2.57;0.00;62537.16;5094025;28;20225;-81
2022/12/18 03:38:40;;;;;;;;;;;3.90;89.20;;;-151.14;0.00;62537.16;5077563;28;19920;-81
2022/12/18 03:41:15;;;;;;;;;;;3.80;89.00;;;-151.14;0.00;62537.16;5094511;28;19981;-81
2022/12/18 03:44:06;;;;;;;;;;;3.90;89.20;;;2.56;0.00;62537.16;5093755;28;19919;-81
2022/12/18 03:46:40;;;;;;;;;;;3.90;89.30;;;-151.14;0.00;62537.16;5090824;28;19921;-81
2022/12/18 03:49:10;;;;;;;;;;;3.90;89.20;;;-151.14;0.00;62537.16;5090692;28;19927;-81
2022/12/18 03:51:41;;;;;;;;;;;3.90;89.20;;;-151.14;0.00;62537.16;5094391;28;20222;-81
2022/12/18 03:54:10;;;;;;;;;;;3.80;89.10;;;-151.14;0.00;62537.16;5077104;28;19920;-81
2022/12/18 03:56:44;;;;;;;;;;;3.80;89.20;;;-151.14;0.00;62537.16;5107759;28;19920;-81
2022/12/18 03:59:14;;;;;;;;;;;3.80;89.10;;;2.56;0.00;62537.16;5073876;28;19949;-81
2022/12/18 04:01:43;;;;;;;;;;;3.90;89.30;;;-151.14;0.00;62537.16;5057202;28;19927;-81
2022/12/18 04:04:14;;;;;;;;;;;3.90;89.20;;;-151.14;0.00;62537.16;5073790;28;19924;-81
2022/12/18 04:06:43;;;;;;;;;;;3.90;89.30;;;2.57;0.00;62537.16;5073670;28;19921;-81
2022/12/18 04:09:13;;;;;;;;;;;3.80;89.20;;;-151.14;0.00;62537.16;5056838;28;19920;-81
2022/12/18 04:11:45;;;;;;;;;;;3.80;89.20;;;-151.14;0.00;62537.16;5090787;28;19927;-82
2022/12/18 04:14:16;;;;;;;;;;;3.90;89.30;;;2.56;0.00;62537.16;5073438;28;20101;-81
2022/12/18 04:16:44;;;;;;;;;;;3.90;89.30;;;-151.14;0.00;62537.16;5076028;28;19926;-81
2022/12/18 04:19:16;;;;;;;;;;;3.90;89.30;;;-151.14;0.00;62537.16;5093897;28;19920;-81
2022/12/18 04:21:45;;;;;;;;;;;3.80;89.20;;;2.61;0.00;62537.16;5077024;28;20216;-81
2022/12/18 04:24:15;;;;;;;;;;;3.80;89.10;;;-151.14;0.00;62537.16;5093524;28;19950;-81
2022/12/18 04:26:56;;;;;;;;;;;3.80;89.20;;;-151.14;0.00;62537.16;5093386;28;19919;-81
2022/12/18 04:29:30;;;;;;;;;;;3.80;89.20;;;-151.14;0.00;62537.16;5110705;28;19920;-81
2022/12/18 04:31:59;;;;;;;;;;;3.90;89.30;;;-151.14;0.00;62537.16;5093605;28;19920;-81
2022/12/18 04:34:28;;;;;;;;;;;3.90;89.30;;;-151.14;0.00;62537.16;5076693;28;19920;-81
2022/12/18 04:36:56;;;;;;;;;;;3.80;89.20;;;-151.14;0.00;62537.16;5093443;28;20123;-81
2022/12/18 04:39:25;;;;;;;;;;;3.80;89.20;;;-151.14;0.00;62537.16;5076608;28;19919;-81
2022/12/18 04:41:56;;;;;;;;;;;3.90;89.30;;;-151.14;0.00;62537.16;5110700;28;19926;-81
2022/12/18 04:44:24;;;;;;;;;;;3.80;89.20;;;-151.14;0.00;62537.16;5076314;28;19934;-81
2022/12/18 04:46:53;;;;;;;;;;;3.80;89.20;;;-151.14;0.00;62537.16;5093344;28;19920;-81
2022/12/18 04:49:21;;;;;;;;;;;3.80;89.20;;;-151.14;0.00;62537.16;5093142;28;19920;-81
2022/12/18 04:51:49;;;;;;;;;;;3.90;89.30;;;2.55;0.00;62537.16;5093590;28;19920;-81
2022/12/18 04:54:17;;;;;;;;;;;3.90;89.30;;;-151.14;0.00;62537.16;5076102;28;19927;-81
2022/12/18 04:56:47;;;;;;;;;;;3.90;89.30;;;-151.14;0.00;62537.16;5093197;28;19920;-81
2022/12/18 04:59:15;;;;;;;;;;;3.90;89.30;;;-151.14;0.00;62537.16;5093242;28;20484;-81
2022/12/18 05:01:43;;;;;;;;;;;3.80;89.20;;;-151.14;0.00;62537.16;5076584;28;19919;-81
2022/12/18 05:04:12;;;;;;;;;;;3.80;89.20;;;-151.14;0.00;62537.16;5110977;28;20211;-81
2022/12/18 05:06:40;;;;;;;;;;;3.90;89.30;;;-151.14;0.00;62537.16;5093125;28;20225;-81
2022/12/18 05:09:08;;;;;;;;;;;3.90;89.30;;;-151.14;0.00;62537.16;5093054;28;19920;-81
2022/12/18 05:11:39;;;;;;;;;;;3.80;89.20;;;-151.14;0.00;62537.16;5076641;28;20212;-81
2022/12/18 05:14:07;;;;;;;;;;;3.80;89.10;;;-151.14;0.00;62537.16;5075900;28;19920;-81
2022/12/18 05:16:35;;;;;;;;;;;3.90;89.20;;;-151.14;0.00;62537.16;5075882;28;19927;-81
2022/12/18 05:19:03;;;;;;;;;;;3.80;89.20;;;-151.14;0.00;62537.16;5093048;28;19920;-81
2022/12/18 05:21:33;;;;;;;;;;;3.80;89.20;;;-151.14;0.00;62537.16;5076210;28;20250;-81
2022/12/18 05:24:00;;;;;;;;;;;3.80;89.20;;;-151.14;0.00;62537.16;5092721;28;19927;-81
2022/12/18 05:26:28;;;;;;;;;;;3.80;89.20;;;-151.14;0.00;62537.16;5075762;28;19926;-81
2022/12/18 05:28:59;;;;;;;;;;;3.80;90.00;;;-151.14;0.00;62537.16;5076415;28;20211;-81
2022/12/18 05:31:27;;;;;;;;;;;3.80;89.20;;;-151.14;0.00;62537.16;5081622;28;19926;-81
2022/12/18 05:33:55;;;;;;;;;;;3.80;89.30;;;2.53;0.00;62537.16;5079233;28;19920;-81
2022/12/18 05:36:23;;;;;;;;;;;3.80;89.20;;;-151.14;0.00;62537.16;5079051;28;19926;-81
2022/12/18 05:38:53;;;;;;;;;;;3.80;89.20;;;-151.14;0.00;62537.16;5096553;28;19926;-81
2022/12/18 05:41:20;;;;;;;;;;;3.80;89.30;;;-151.14;0.00;62537.16;5096294;28;20229;-81
2022/12/18 05:43:48;;;;;;;;;;;3.80;89.20;;;-151.14;0.00;62537.16;5096020;28;19920;-81
2022/12/18 05:46:17;;;;;;;;;;;3.80;89.20;;;-151.14;0.00;62537.16;5113032;28;19926;-81
2022/12/18 05:48:45;;;;;;;;;;;3.80;89.20;;;-151.14;0.00;62537.16;5079442;28;19920;-81
2022/12/18 05:51:14;;;;;;;;;;;3.90;89.30;;;-151.14;0.00;62537.16;5113179;28;19920;-81
2022/12/18 05:53:45;;;;;;;;;;;3.80;89.30;;;-151.14;0.00;62537.16;5079481;28;19926;-81
2022/12/18 05:56:16;;;;;;;;;;;3.90;89.40;;;-151.14;0.00;62537.16;5095908;28;20109;-81
2022/12/18 05:58:59;;;;;;;;;;;3.80;89.30;;;-151.14;0.00;62537.16;5096191;28;19920;-81
2022/12/18 06:01:27;;;;;;;;;;;3.80;89.30;;;2.52;0.00;62537.16;5079229;28;20230;-81
2022/12/18 06:03:55;;;;;;;;;;;3.90;89.40;;;-151.14;0.00;62537.16;5095711;28;19927;-81
2022/12/18 06:06:24;;;;;;;;;;;3.90;89.40;;;-151.14;0.00;62537.16;5078650;28;19921;-81
2022/12/18 06:08:52;;;;;;;;;;;3.80;89.20;;;-151.14;0.00;62537.16;5095938;28;19920;-81
2022/12/18 06:11:22;;;;;;;;;;;3.80;89.20;;;-151.14;0.00;62537.16;5096002;28;20124;-81
2022/12/18 06:13:56;;;;;;;;;;;3.90;89.40;;;-151.14;0.00;62537.16;5113793;28;19927;-81
2022/12/18 06:16:24;;;;;;;;;;;3.80;89.30;;;-151.14;0.00;62537.16;5095418;28;19955;-81
2022/12/18 06:18:52;;;;;;;;;;;3.80;89.20;;;-151.14;0.00;62537.16;5095700;28;19920;-81
2022/12/18 06:21:20;;;;;;;;;;;3.80;89.20;;;-151.14;0.00;62537.16;5095904;28;19920;-81
2022/12/18 06:23:55;;;;;;;;;;;3.80;89.20;;;-151.14;0.00;62537.16;5095112;28;19920;-82
2022/12/18 06:26:35;;;;;;;;;;;3.80;89.30;;;-151.14;0.00;62537.16;5078753;28;19926;-82
2022/12/18 06:29:21;;;;;;;;;;;3.90;89.30;;;-151.14;0.00;62537.16;5078530;28;20211;-82
2022/12/18 06:31:49;;;;;;;;;;;3.80;89.30;;;-151.14;0.00;62537.16;5095282;28;19920;-82
2022/12/18 06:34:17;;;;;;;;;;;3.90;89.50;;;-151.14;0.00;62537.16;5078902;28;20237;-82
2022/12/18 06:36:45;;;;;;;;;;;3.90;89.40;;;2.52;0.00;62537.16;5078605;28;19920;-82
2022/12/18 06:39:13;;;;;;;;;;;3.90;89.40;;;-151.14;0.00;62537.16;5111469;28;19924;-81
2022/12/18 06:41:42;;;;;;;;;;;3.80;89.30;;;-151.14;0.00;62537.16;5129034;28;20208;-82
2022/12/18 06:44:10;;;;;;;;;;;3.90;89.40;;;-151.14;0.00;62537.16;5112105;28;20220;-81
2022/12/18 06:46:38;;;;;;;;;;;3.80;89.40;;;2.53;0.00;62537.16;5078289;28;19920;-81
2022/12/18 06:49:06;;;;;;;;;;;3.80;89.40;;;-151.14;0.00;62537.16;5081495;28;19926;-82
2022/12/18 06:51:34;;;;;;;;;;;3.80;89.30;;;-151.14;0.00;62537.16;5095423;28;19920;-81
2022/12/18 06:54:19;;;;;;;;;;;3.90;89.40;;;-151.14;0.00;62537.16;5077889;28;19920;-82
2022/12/18 06:57:02;;;;;;;;;;;3.80;89.40;;;-151.14;0.00;62537.16;5095032;28;19926;-82
2022/12/18 06:59:39;;;;;;;;;;;3.80;90.20;;;-151.14;0.00;62537.16;5094564;28;20211;-82
2022/12/18 07:02:13;;;;;;;;;;;3.90;89.50;;;-151.14;0.00;62537.16;5078380;28;19935;-81
2022/12/18 07:04:42;;;;;;;;;;;3.80;89.40;;;-151.14;0.00;62537.16;5093936;28;19926;-82
2022/12/18 07:07:10;;;;;;;;;;;3.80;89.30;;;-151.14;0.00;62537.16;5094656;28;19919;-81
2022/12/18 07:09:38;;;;;;;;;;;3.80;89.50;;;2.52;0.00;62537.16;5078180;28;19926;-82
2022/12/18 07:12:07;;;;;;;;;;;3.80;89.30;;;2.52;0.00;62537.16;5078288;28;19920;-82
2022/12/18 07:14:36;;;;;;;;;;;3.80;89.40;;;-151.14;0.00;62537.16;5094624;28;20096;-82
2022/12/18 07:17:06;;;;;;;;;;;3.80;89.30;;;2.51;0.00;62537.16;5077801;28;19920;-82
2022/12/18 07:19:34;;;;;;;;;;;3.80;89.30;;;-151.14;0.00;62537.16;5094716;28;20122;-81
2022/12/18 07:22:02;;;;;;;;;;;3.80;89.40;;;2.52;0.00;62537.16;5095075;28;19920;-82
2022/12/18 07:24:30;;;;;;;;;;;3.80;89.40;;;-151.14;0.00;62537.16;5094584;28;20115;-81
2022/12/18 07:26:58;;;;;;;;;;;3.90;89.40;;;-151.14;0.00;62537.16;5077957;28;20107;-82
2022/12/18 07:29:28;;;;;;;;;;;3.80;89.20;;;-151.14;0.00;62537.16;5077700;28;19919;-81
2022/12/18 07:31:56;;;;;;;;;;;3.80;89.20;;;-151.14;0.00;62537.16;5094553;28;19920;-82
2022/12/18 07:34:24;;;;;;;;;;;3.80;89.20;;;-151.14;0.00;62537.16;5111241;28;20215;-81
2022/12/18 07:36:52;;;;;;;;;;;3.80;89.20;;;-151.14;0.00;62537.16;5094226;28;19926;-82
2022/12/18 07:39:53;;;;;;;;;;;3.80;89.30;;;-151.14;0.00;62537.16;5094231;28;19920;-82
2022/12/18 07:42:34;;;;;;;;;;;3.80;89.30;;;-151.14;0.00;62537.16;5094336;28;19919;-81
2022/12/18 07:45:20;;;;;;;;;;;3.80;89.40;;;-151.14;0.00;62537.16;5110333;28;19927;-81
2022/12/18 07:48:01;;;;;;;;;;;3.90;89.60;;;-151.14;0.00;62537.16;5077358;28;19926;-81
2022/12/18 07:50:29;;;;;;;;;;;3.80;89.20;;;-151.14;0.00;62537.16;5077656;28;19924;-81
2022/12/18 07:52:57;;;;;;;;;;;3.80;89.40;;;-151.14;0.00;62537.16;5093541;28;19919;-81
2022/12/18 07:55:25;;;;;;;;;;;3.80;89.30;;;-151.14;0.00;62537.16;5110460;28;19920;-82
2022/12/18 07:57:53;;;;;;;;;;;3.80;89.20;;;-151.14;0.00;62537.16;5111353;28;19920;-82
2022/12/18 08:00:23;;;;;;;;;;;3.80;89.10;;;-151.14;0.00;62537.16;5112347;28;19920;-81
2022/12/18 08:02:51;;;;;;;;;;;3.80;89.20;;;-151.14;0.00;62537.16;5077224;28;19926;-81
2022/12/18 08:05:20;;;;;;;;;;;3.80;89.40;;;-151.14;0.00;62537.16;5093087;28;19924;-81
2022/12/18 08:07:48;;;;;;;;;;;3.80;89.40;;;-151.14;0.00;62537.16;5110773;28;20219;-81
2022/12/18 08:10:16;;;;;;;;;;;3.90;89.40;;;-151.14;0.00;62537.16;5094248;28;19942;-81
2022/12/18 08:12:44;;;;;;;;;;;3.90;89.50;;;-151.14;0.00;62537.16;5111985;28;19926;-81
2022/12/18 08:15:12;;;;;;;;;;;3.90;89.40;;;-151.14;0.00;62537.16;5093222;28;19920;-81
2022/12/18 08:17:41;;;;;;;;;;;3.80;89.30;;;-151.14;0.00;62537.16;5077128;28;19934;-81
2022/12/18 08:20:10;;;;;;;;;;;3.80;89.20;;;-151.14;0.00;62537.16;5093826;28;20105;-81
2022/12/18 08:22:41;;;;;;;;;;;3.80;89.20;;;-151.14;0.00;62537.16;5077564;28;19920;-81
2022/12/18 08:25:10;;;;;;;;;;;3.80;89.30;;;-151.14;0.00;62537.16;5093036;28;19926;-81
2022/12/18 08:27:38;;;;;;;;;;;3.80;89.30;;;-151.14;0.00;62537.16;5110610;28;19920;-81
2022/12/18 08:30:25;;;;;;;;;;;3.80;89.10;;;-151.14;0.00;62537.16;5111804;28;19920;-81
2022/12/18 08:32:55;;;;;;;;;;;3.80;89.30;;;-151.14;0.00;62537.16;5093742;28;19926;-81
2022/12/18 08:35:24;;;;;;;;;;;3.80;90.30;;;-151.14;0.00;62537.16;5092947;28;19926;-81
2022/12/18 08:38:01;;;;;;;;;;;3.80;89.50;;;-151.14;0.00;62537.16;5111642;28;20204;-81
2022/12/18 08:40:29;;;;;;;;;;;3.80;89.30;;;-151.14;0.00;62537.16;5093615;28;19919;-81
2022/12/18 08:45:45;;;;;;;;;;;3.80;89.30;;;-151.14;0.00;62537.16;5093408;28;19919;-81
2022/12/18 08:48:25;;;;;;;;;;;3.80;89.30;;;-151.14;0.00;62537.16;5109716;28;19919;-81
2022/12/18 08:50:56;;;;;;;;;;;3.80;89.20;;;-151.14;0.00;62537.16;5093573;28;19920;-81
2022/12/18 08:53:28;;;;;;;;;;;3.80;89.30;;;-151.14;0.00;62537.16;5076482;28;19920;-81
2022/12/18 08:55:57;;;;;;;;;;;3.80;89.40;;;-151.14;0.00;62537.16;5093123;28;19919;-81
2022/12/18 08:58:26;;;;;;;;;;;3.80;89.30;;;-151.14;0.00;62537.16;5093399;28;20208;-81
2022/12/18 09:01:01;;;;;;;;;;;3.80;89.20;;;-151.14;0.00;62537.16;5076627;28;19934;-81
2022/12/18 09:03:30;;;;;;;;;;;3.80;89.40;;;-151.14;0.00;62537.16;5077492;28;19920;-81
2022/12/18 09:05:59;;;;;;;;;;;3.80;89.50;;;-151.14;0.00;62537.16;5096410;28;19926;-80
2022/12/18 09:08:27;;;;;;;;;;;3.80;89.30;;;-151.14;0.00;62537.16;5080115;28;19926;-81
2022/12/18 09:10:54;;;;;;;;;;;3.80;89.40;;;;;;5096975;28;19920;-81
2022/12/18 09:13:23;;;;;;;;;;;3.80;89.50;;;-151.14;0.00;62537.16;5079743;28;19920;-81
2022/12/18 09:15:55;;;;;;;;;;;3.80;89.20;;;2.50;0.00;62537.16;5096522;28;19928;-82
2022/12/18 09:18:23;;;;;;;;;;;3.80;89.20;;;-151.14;0.00;62537.16;5114865;28;20227;-81
2022/12/18 09:20:52;;;;;;;;;;;3.80;89.50;;;-151.14;0.00;62537.16;5096773;28;19926;-81
2022/12/18 09:23:23;;;;;;;;;;;3.80;89.30;;;-151.14;0.00;62537.16;5079694;28;19919;-81
2022/12/18 09:25:53;;;;;;;;;;;3.80;89.20;;;-151.14;0.00;62537.16;5085678;28;19920;-81
2022/12/18 09:28:28;;;;;;;;;;;3.80;89.20;;;-151.14;0.00;62537.16;5096153;28;20234;-81
2022/12/18 09:33:50;;;;;;;;;;;3.80;89.30;;;-151.14;0.00;62537.16;5079275;28;19942;-81
2022/12/18 09:36:19;;;;;;;;;;;3.80;89.40;;;-151.14;0.00;62537.16;5079581;28;20190;-81
2022/12/18 09:39:18;;;;;;;;;;;3.80;89.30;;;-151.14;0.00;62537.16;5113224;28;20123;-81
2022/12/18 09:42:07;;;;;;;;;;;3.80;89.50;;;-151.14;0.00;62537.16;5096066;28;19926;-81
2022/12/18 09:44:36;;;;;;;;;;;3.80;89.60;;;-151.14;0.00;62537.16;5079248;28;19919;-81
2022/12/18 09:47:11;;;;;;;;;;;3.80;89.30;;;-151.14;0.00;62537.16;5112965;28;19926;-81
2022/12/18 09:49:42;;;;;;;;;;;3.80;89.40;;;-151.14;0.00;62537.16;5113110;28;19919;-81
2022/12/18 09:52:15;;;;;;;;;;;3.80;89.40;;;-151.14;0.00;62537.16;5096191;28;19919;-81
2022/12/18 09:54:48;;;;;;;;;;;3.80;89.30;;;-151.14;0.00;62537.16;5112643;28;19920;-81
2022/12/18 09:57:16;;;;;;;;;;;3.80;89.50;;;2.48;0.00;62537.16;5096273;28;19920;-82
2022/12/18 09:59:47;;;;;;;;;;;3.80;89.50;;;-151.14;0.00;62537.16;5112652;28;19920;-81
2022/12/18 10:02:16;;;;;;;;;;;3.80;89.50;;;2.48;0.00;62537.16;5095750;28;19926;-81
2022/12/18 10:04:44;;;;;;;;;;;3.80;89.30;;;-151.14;0.00;62537.16;5095601;28;19920;-81
2022/12/18 10:07:20;;;;;;;;;;;3.80;89.40;;;-151.14;0.00;62537.16;5095951;28;19919;-81
2022/12/18 10:09:51;;;;;;;;;;;3.80;89.50;;;-151.14;0.00;62537.16;5079138;28;19920;-82
2022/12/18 10:12:22;;;;;;;;;;;3.80;89.50;;;-151.14;0.00;62537.16;5079092;28;20219;-81
2022/12/18 10:14:52;;;;;;;;;;;3.80;89.30;;;-151.14;0.00;62537.16;5094057;28;19920;-81
2022/12/18 10:17:27;;;;;;;;;;;3.80;89.50;;;-151.14;0.00;62537.16;5096003;28;20209;-82
2022/12/18 10:19:57;;;;;;;;;;;3.80;89.50;;;-151.14;0.00;62537.16;5113808;28;19920;-81
2022/12/18 10:22:48;;;;;;;;;;;3.80;89.50;;;-151.14;0.00;62537.16;5112850;28;19924;-81
2022/12/18 10:25:20;;;;;;;;;;;3.80;89.30;;;2.50;0.00;62537.16;5095083;28;19926;-81
2022/12/18 10:27:48;;;;;;;;;;;3.80;89.50;;;-151.14;0.00;62537.16;5078910;28;19942;-81
2022/12/18 10:30:17;;;;;;;;;;;3.80;89.30;;;2.48;0.00;62537.16;5078870;28;19920;-81
2022/12/18 10:32:45;;;;;;;;;;;3.80;89.40;;;-151.14;0.00;62537.16;5078363;28;19920;-81
2022/12/18 10:35:17;;;;;;;;;;;3.80;89.50;;;-151.14;0.00;62537.16;5095003;28;20208;-81
2022/12/18 10:40:52;;;;;;;;;;;3.80;89.40;;;-151.14;100.00;62537.16;4395337;32;19908;-81
2022/12/18 10:43:22;;;;;;;;;;;3.80;89.30;;;-151.14;100.00;62537.16;5086456;28;35276;-81
2022/12/18 10:46:02;;;;;;;;;;;3.80;89.30;;;-151.14;100.00;62537.16;5087780;28;19946;-81
2022/12/18 10:48:30;;;;;;;;;;;3.80;89.40;;;-151.14;100.00;62537.16;5086948;28;19927;-81
2022/12/18 10:50:57;;;;;;;;;;;3.80;89.40;;;-151.14;100.00;62537.16;5087077;28;19974;-81
2022/12/18 10:53:32;;;;;;;;;;;3.80;89.50;;;-151.14;100.00;62537.16;5069878;28;19920;-81
2022/12/18 10:56:05;;;;;;;;;;;3.80;89.30;;;-151.14;100.00;62537.16;5069654;28;19920;-81
2022/12/18 10:58:34;;;;;;;;;;;3.80;89.30;;;-151.14;100.00;62537.16;5086892;28;20132;-81
2022/12/18 11:01:04;;;;;;;;;;;3.80;89.30;;;-151.14;100.00;62537.16;5086977;28;20234;-81
2022/12/18 11:03:35;;;;;;;;;;;3.80;89.20;;;-151.14;100.00;62537.16;5088084;28;19926;-81
2022/12/18 11:06:05;;;;;;;;;;;3.80;89.30;;;-151.14;100.00;62537.16;5086443;28;20115;-81
2022/12/18 11:08:33;;;;;;;;;;;3.80;89.30;;;2.47;100.00;62537.16;5086851;28;19921;-81
2022/12/18 11:11:01;;;;;;;;;;;3.80;89.30;;;-151.14;100.00;62537.16;5087979;28;19935;-81
2022/12/18 11:13:31;;;;;;;;;;;3.80;89.40;;;2.48;100.00;62537.16;5086802;28;19920;-81
2022/12/18 11:15:59;;;;;;;;;;;3.80;89.40;;;-151.14;100.00;62537.16;5087353;28;19920;-81
2022/12/18 11:18:29;;;;;;;;;;;3.80;89.40;;;-151.14;100.00;62537.16;5087708;28;20337;-81
2022/12/18 11:20:58;;;;;;;;;;;3.80;89.30;;;-151.14;100.00;62537.16;5086434;28;19927;-81
2022/12/18 11:23:26;;;;;;;;;;;3.80;89.30;;;-151.14;100.00;62537.16;5097938;28;19920;-81
2022/12/18 11:25:56;;;;;;;;;;;3.80;89.30;;;-151.14;100.00;62537.16;5086244;28;19927;-81
2022/12/18 11:28:38;;;;;;;;;;;3.80;89.30;;;-151.14;100.00;62537.16;5071661;28;19921;-81
2022/12/18 11:31:23;;;;;;;;;;;3.80;89.40;;;-151.14;100.00;62537.16;5067296;28;19925;-81
2022/12/18 11:34:10;;;;;;;;;;;3.80;89.30;;;2.46;100.00;62537.16;5067159;28;20217;-81
2022/12/18 11:36:51;;;;;;;;;;;3.80;89.30;;;-151.14;100.00;62537.16;5067078;28;20212;-81
2022/12/18 11:39:25;;;;;;;;;;;3.80;89.30;;;-151.14;100.00;62537.16;5065901;28;19921;-81
2022/12/18 11:42:12;;;;;;;;;;;3.80;89.30;;;-151.14;100.00;62537.16;5067385;28;19927;-81
2022/12/18 11:44:46;;;;;;;;;;;3.80;89.20;;;2.47;100.00;62537.16;5066285;28;19921;-81